Flight Track Log - Related Links

Times and Time Zones

All times are in EST time to prevent confusion due to time zone crossing. See the CES5389 flight status page for this flight to view local times or setup timezone preferences in your user account.

Time Position Orientation Groundspeed Altitude Reporting Facility
EST Latitude Longitude Course Direction KTS MPH feet Rate Location/Type
Fri 06:35:00 PM 31.5587 120.5225 298° West  Level Estimated
Fri 06:36:00 PM 31.5945 120.4408 297° West  Level Estimated
Fri 06:37:00 PM 31.6303 120.3590 297° West  Level Estimated
Fri 06:38:00 PM 31.6660 120.2772 297° West  Level Estimated
Fri 06:39:00 PM 31.7016 120.1953 297° West  Level Estimated
Fri 06:40:00 PM 31.7372 120.1133 297° West  Level Estimated
Fri 06:41:00 PM 31.7728 120.0312 297° West  Level Estimated
Fri 06:42:00 PM 31.8082 119.9491 297° West  Level Estimated
Fri 06:43:00 PM 31.8437 119.8670 297° West  Level Estimated
Fri 06:44:00 PM 31.8790 119.7847 297° West  Level Estimated
Fri 06:45:00 PM 31.9144 119.7025 297° West  Level Estimated
Fri 06:46:00 PM 31.9497 119.6201 297° West  Level Estimated
Fri 06:47:00 PM 31.9849 119.5377 297° West  Level Estimated
Fri 06:48:00 PM 32.0201 119.4552 297° West  Level Estimated
Fri 06:49:00 PM 32.0552 119.3727 297° West  Level Estimated
Fri 06:50:00 PM 32.0902 119.2900 297° West  Level Estimated
Fri 06:51:00 PM 32.1252 119.2074 297° West  Level Estimated
Fri 06:52:00 PM 32.1602 119.1246 297° West  Level Estimated
Fri 06:53:00 PM 32.1951 119.0418 296° West  Level Estimated
Fri 06:54:00 PM 32.2299 118.9590 296° West  Level Estimated
Fri 06:55:00 PM 32.2647 118.8761 296° West  Level Estimated
Fri 06:56:00 PM 32.2995 118.7931 296° West  Level Estimated
Fri 06:57:00 PM 32.3341 118.7100 296° West  Level Estimated
Fri 06:58:00 PM 32.3688 118.6269 296° West  Level Estimated
Fri 06:59:00 PM 32.4034 118.5437 296° West  Level Estimated
Fri 07:00:00 PM 32.4379 118.4605 296° West  Level Estimated
Fri 07:01:00 PM 32.4724 118.3772 296° West  Level Estimated
Fri 07:02:00 PM 32.5068 118.2938 296° West  Level Estimated
Fri 07:03:00 PM 32.5411 118.2104 296° West  Level Estimated
Fri 07:04:00 PM 32.5754 118.1269 296° West  Level Estimated
Fri 07:05:00 PM 32.6097 118.0433 296° West  Level Estimated
Fri 07:06:00 PM 32.6439 117.9597 296° West  Level Estimated
Fri 07:07:00 PM 32.6780 117.8760 296° West  Level Estimated
Fri 07:08:00 PM 32.7121 117.7923 296° West  Level Estimated
Fri 07:09:00 PM 32.7461 117.7084 296° West  Level Estimated
Fri 07:10:00 PM 32.7801 117.6245 296° West  Level Estimated
Fri 07:11:00 PM 32.8140 117.5406 296° West  Level Estimated
Fri 07:12:00 PM 32.8478 117.4566 296° West  Level Estimated
Fri 07:13:00 PM 32.8816 117.3725 296° West  Level Estimated
Fri 07:14:00 PM 32.9154 117.2884 296° West  Level Estimated
Fri 07:15:00 PM 32.9491 117.2042 296° West  Level Estimated
Fri 07:16:00 PM 32.9827 117.1199 295° West  Level Estimated
Fri 07:17:00 PM 33.0163 117.0356 295° West  Level Estimated
Fri 07:18:00 PM 33.0498 116.9512 295° West  Level Estimated
Fri 07:19:00 PM 33.0832 116.8667 295° West  Level Estimated
Fri 07:20:00 PM 33.1166 116.7822 295° West  Level Estimated
Fri 07:21:00 PM 33.1500 116.6976 295° West  Level Estimated
Fri 07:22:00 PM 33.1833 116.6130 295° West  Level Estimated
Fri 07:23:00 PM 33.2165 116.5283 295° West  Level Estimated
Fri 07:24:00 PM 33.2497 116.4435 295° West  Level Estimated
Fri 07:25:00 PM 33.2828 116.3586 295° West  Level Estimated
Fri 07:26:00 PM 33.3159 116.2737 295° West  Level Estimated
Fri 07:27:00 PM 33.3489 116.1888 295° West  Level Estimated
Fri 07:28:00 PM 33.3818 116.1037 295° West  Level Estimated
Fri 07:29:00 PM 33.4147 116.0186 295° West  Level Estimated
Fri 07:30:00 PM 33.4475 115.9334 295° West  Level Estimated
Fri 07:31:00 PM 33.4803 115.8482 295° West  Level Estimated
Fri 07:32:00 PM 33.5130 115.7629 295° West  Level Estimated
Fri 07:33:00 PM 33.5456 115.6776 295° West  Level Estimated
Fri 07:34:00 PM 33.5782 115.5921 295° West  Level Estimated
Fri 07:35:00 PM 33.6108 115.5067 295° West  Level Estimated
Fri 07:36:00 PM 33.6432 115.4211 295° West  Level Estimated
Fri 07:37:00 PM 33.6757 115.3355 294° West  Level Estimated
Fri 07:38:00 PM 33.7080 115.2498 294° West  Level Estimated
Fri 07:39:00 PM 33.7403 115.1640 294° West  Level Estimated
Fri 07:40:00 PM 33.7726 115.0782 294° West  Level Estimated
Fri 07:41:00 PM 33.8047 114.9924 294° West  Level Estimated
Fri 07:42:00 PM 33.8369 114.9064 294° West  Level Estimated
Fri 07:43:00 PM 33.8689 114.8204 294° West  Level Estimated
Fri 07:44:00 PM 33.9009 114.7344 294° West  Level Estimated
Fri 07:45:00 PM 33.9329 114.6482 294° West  Level Estimated
Fri 07:46:00 PM 33.9647 114.5620 294° West  Level Estimated
Fri 07:47:00 PM 33.9966 114.4758 294° West  Level Estimated
Fri 07:48:00 PM 34.0283 114.3894 294° West  Level Estimated
Fri 07:49:00 PM 34.0600 114.3030 294° West  Level Estimated
Fri 07:50:00 PM 34.0917 114.2166 294° West  Level Estimated
Fri 07:51:00 PM 34.1232 114.1301 294° West  Level Estimated
Fri 07:52:00 PM 34.1548 114.0435 294° West  Level Estimated
Fri 07:53:00 PM 34.1862 113.9568 294° West  Level Estimated
Fri 07:54:00 PM 34.2176 113.8701 294° West  Level Estimated
Fri 07:55:00 PM 34.2490 113.7833 294° West  Level Estimated
Fri 07:56:00 PM 34.2802 113.6965 294° West  Level Estimated
Fri 07:57:00 PM 34.3114 113.6096 294° West  Level Estimated
Fri 07:58:00 PM 34.3426 113.5226 293° West  Level Estimated
Fri 07:59:00 PM 34.3737 113.4356 293° West  Level Estimated
Fri 08:00:00 PM 34.4047 113.3485 293° West  Level Estimated
Fri 08:01:00 PM 34.4357 113.2613 293° West  Level Estimated
Fri 08:02:00 PM 34.4666 113.1741 293° West  Level Estimated
Fri 08:03:00 PM 34.4974 113.0868 293° West  Level Estimated
Fri 08:04:00 PM 34.5282 112.9994 293° West  Level Estimated
Fri 08:05:00 PM 34.5589 112.9120 293° West  Level Estimated
Fri 08:06:00 PM 34.5896 112.8245 293° West  Level Estimated
Fri 08:07:00 PM 34.6202 112.7369 293° West  Level Estimated
Fri 08:08:00 PM 34.6507 112.6493 293° West  Level Estimated
Fri 08:09:00 PM 34.6811 112.5616 293° West  Level Estimated
Fri 08:10:00 PM 34.7116 112.4739 293° West  Level Estimated
Fri 08:11:00 PM 34.7411 112.3883 293° West  Level Estimated
Fri 08:12:00 PM 34.7411 112.3883 68° East  Level Estimated
Fri 08:13:00 PM 34.7411 112.3883 68° East  Level Estimated
Fri 08:14:00 PM 34.7411 112.3883 68° East  Level Estimated
Fri 08:15:00 PM 34.7411 112.3883 68° East  Level Estimated
Fri 08:16:00 PM 34.7411 112.3883 68° East  Level Estimated

Login

Don't have an account? Register now (free) for customized features, flight alerts, and more!